createdAt,value
2023-02-16T00:00:30.209Z,97627.63
2023-02-16T00:02:56.679Z,97628.47
2023-02-16T00:05:30.720Z,97629.22
2023-02-16T00:07:57.432Z,97623.88
2023-02-16T00:10:24.417Z,97624.53
2023-02-16T00:13:09.451Z,97624.13
2023-02-16T00:15:35.949Z,97621.28
2023-02-16T00:18:04.158Z,97626.31
2023-02-16T00:20:30.576Z,97621.03
2023-02-16T00:22:57.159Z,97621.44
2023-02-16T00:25:23.753Z,97623.81
2023-02-16T00:27:50.227Z,97621.63
2023-02-16T00:30:17.305Z,97613.00
2023-02-16T00:32:43.791Z,97612.81
2023-02-16T00:35:17.196Z,97617.88
2023-02-16T00:37:43.636Z,97624.34
2023-02-16T00:40:10.512Z,97634.22
2023-02-16T00:42:36.953Z,97632.41
2023-02-16T00:45:03.429Z,97631.31
2023-02-16T00:47:32.834Z,97626.94
2023-02-16T00:49:59.321Z,97622.56
2023-02-16T00:52:28.800Z,97618.38
2023-02-16T00:54:55.642Z,97612.22
2023-02-16T00:57:22.331Z,97609.69
2023-02-16T00:59:49.224Z,97603.38
2023-02-16T01:02:15.684Z,97598.34
2023-02-16T01:04:42.182Z,97590.06
2023-02-16T01:07:33.575Z,97590.91
2023-02-16T01:10:28.897Z,97594.28
2023-02-16T01:12:55.368Z,97588.00
2023-02-16T01:15:22.271Z,97583.69
2023-02-16T01:17:48.880Z,97585.16
2023-02-16T01:20:19.277Z,97581.72
2023-02-16T01:22:45.702Z,97587.56
2023-02-16T01:25:12.192Z,97583.22
2023-02-16T01:27:38.904Z,97584.00
2023-02-16T01:30:06.249Z,97584.88
2023-02-16T01:32:33.428Z,97588.25
2023-02-16T01:35:00.003Z,97587.38
2023-02-16T01:37:26.560Z,97578.19
2023-02-16T01:39:52.981Z,97579.91
2023-02-16T01:42:36.247Z,97579.91
2023-02-16T01:45:04.161Z,97581.16
2023-02-16T01:47:49.516Z,97575.69
2023-02-16T01:50:20.237Z,97564.09
2023-02-16T01:52:49.715Z,97561.66
2023-02-16T01:55:24.432Z,97554.81
2023-02-16T01:57:52.500Z,97549.94
2023-02-16T02:00:22.741Z,97553.34
2023-02-16T02:02:53.209Z,97546.34
2023-02-16T02:05:36.505Z,97548.88
2023-02-16T02:08:15.128Z,97539.66
2023-02-16T02:10:51.038Z,97539.44
2023-02-16T02:13:21.929Z,97554.16
2023-02-16T02:15:48.465Z,97552.28
2023-02-16T02:18:15.028Z,97539.66
2023-02-16T02:21:23.408Z,97550.69
2023-02-16T02:23:52.579Z,97548.28
2023-02-16T02:26:39.968Z,97539.50
2023-02-16T02:29:09.439Z,97547.78
2023-02-16T02:31:42.172Z,97548.53
2023-02-16T02:34:13.150Z,97562.63
2023-02-16T02:36:42.870Z,97558.78
2023-02-16T02:39:28.062Z,97553.91
2023-02-16T02:42:05.808Z,97558.19
2023-02-16T02:44:49.140Z,97552.91
2023-02-16T02:47:15.736Z,97552.38
2023-02-16T02:49:48.838Z,97572.84
2023-02-16T02:52:15.310Z,97558.50
2023-02-16T02:55:00.449Z,97556.81
2023-02-16T02:57:45.524Z,97550.94
2023-02-16T03:00:34.289Z,97559.31
2023-02-16T03:03:24.167Z,97559.91
2023-02-16T03:05:57.406Z,97557.28
2023-02-16T03:08:24.542Z,97556.91
2023-02-16T03:11:20.417Z,97559.19
2023-02-16T03:13:47.631Z,97557.44
2023-02-16T03:16:14.935Z,97568.66
2023-02-16T03:18:59.963Z,97563.59
2023-02-16T03:21:45.171Z,97561.19
2023-02-16T03:24:45.537Z,97560.38
2023-02-16T03:27:31.162Z,97563.69
2023-02-16T03:29:57.683Z,97568.34
2023-02-16T03:32:24.177Z,97559.84
2023-02-16T03:34:50.659Z,97563.97
2023-02-16T03:37:17.116Z,97551.28
2023-02-16T03:40:02.213Z,97553.75
2023-02-16T03:42:28.730Z,97546.25
2023-02-16T03:44:55.287Z,97559.84
2023-02-16T03:47:21.872Z,97556.47
2023-02-16T03:49:48.430Z,97561.88
2023-02-16T03:52:14.889Z,97557.72
2023-02-16T03:54:41.336Z,97555.16
2023-02-16T03:57:17.036Z,97551.06
2023-02-16T03:59:47.555Z,97552.69
2023-02-16T04:02:13.983Z,97542.75
2023-02-16T04:04:40.524Z,97536.66
2023-02-16T04:07:06.937Z,97531.41
2023-02-16T04:09:33.528Z,97533.50
2023-02-16T04:12:18.654Z,97532.03
2023-02-16T04:14:45.100Z,97518.03
2023-02-16T04:17:11.556Z,97520.53
2023-02-16T04:19:38.076Z,97519.47
2023-02-16T04:22:04.526Z,97515.50
2023-02-16T04:24:30.992Z,97512.19
2023-02-16T04:26:57.453Z,97513.06
2023-02-16T04:29:23.899Z,97507.94
2023-02-16T04:31:50.602Z,97503.66
2023-02-16T04:34:17.185Z,97499.63
2023-02-16T04:36:43.624Z,97496.25
2023-02-16T04:39:10.118Z,97491.78
2023-02-16T04:41:36.633Z,97494.00
2023-02-16T04:44:03.057Z,97485.56
2023-02-16T04:46:30.570Z,97493.31
2023-02-16T04:48:57.108Z,97480.63
2023-02-16T04:51:23.563Z,97479.00
2023-02-16T04:53:50.046Z,97481.44
2023-02-16T04:56:16.917Z,97478.59
2023-02-16T04:58:43.370Z,97483.22
2023-02-16T05:01:09.919Z,97489.25
2023-02-16T05:03:48.931Z,97488.63
2023-02-16T05:06:15.475Z,97494.00
2023-02-16T05:08:41.917Z,97488.19
2023-02-16T05:11:27.001Z,97479.78
2023-02-16T05:14:12.019Z,97489.63
2023-02-16T05:16:38.465Z,97497.22
2023-02-16T05:19:04.983Z,97497.00
2023-02-16T05:21:31.434Z,97490.91
2023-02-16T05:24:07.806Z,97486.09
2023-02-16T05:26:34.808Z,97478.66
2023-02-16T05:29:01.302Z,97487.06
2023-02-16T05:31:28.268Z,97484.28
2023-02-16T05:33:54.748Z,97487.69
2023-02-16T05:36:21.404Z,97476.63
2023-02-16T05:38:47.832Z,97483.81
2023-02-16T05:41:23.617Z,97484.72
2023-02-16T05:43:59.834Z,97489.53
2023-02-16T05:46:26.684Z,97492.09
2023-02-16T05:48:53.305Z,97495.44
2023-02-16T05:51:19.777Z,97491.88
2023-02-16T05:53:46.254Z,97500.47
2023-02-16T05:56:12.783Z,97501.97
2023-02-16T05:58:39.273Z,97500.06
2023-02-16T06:01:06.162Z,97498.13
2023-02-16T06:03:32.860Z,97506.91
2023-02-16T06:06:00.350Z,97499.34
2023-02-16T06:08:26.815Z,97498.34
2023-02-16T06:10:53.336Z,97505.06
2023-02-16T06:13:20.503Z,97504.88
2023-02-16T06:15:47.130Z,97505.66
2023-02-16T06:18:13.572Z,97509.09
2023-02-16T06:20:40.176Z,97511.22
2023-02-16T06:23:06.824Z,97508.66
2023-02-16T06:25:33.268Z,97504.38
2023-02-16T06:27:59.783Z,97515.28
2023-02-16T06:30:26.427Z,97510.91
2023-02-16T06:32:52.987Z,97505.19
2023-02-16T06:35:19.413Z,97517.06
2023-02-16T06:37:59.296Z,97507.75
2023-02-16T06:40:26.196Z,97513.28
2023-02-16T06:42:52.662Z,97508.13
2023-02-16T06:45:19.336Z,97514.16
2023-02-16T06:47:45.862Z,97503.97
2023-02-16T06:50:14.515Z,97507.53
2023-02-16T06:52:41.231Z,97505.94
2023-02-16T06:55:07.951Z,97516.16
2023-02-16T06:57:34.534Z,97517.84
2023-02-16T07:00:00.964Z,97511.66
2023-02-16T07:02:27.454Z,97521.75
2023-02-16T07:04:54.633Z,97514.81
2023-02-16T07:07:21.323Z,97514.50
2023-02-16T07:09:47.811Z,97516.00
2023-02-16T07:12:14.253Z,97509.06
2023-02-16T07:14:42.484Z,97511.41
2023-02-16T07:17:09.701Z,97518.84
2023-02-16T07:19:36.132Z,97513.50
2023-02-16T07:22:02.664Z,97508.94
2023-02-16T07:24:29.118Z,97513.69
2023-02-16T07:26:55.541Z,97510.00
2023-02-16T07:29:22.058Z,97506.19
2023-02-16T07:31:56.567Z,97499.03
2023-02-16T07:34:23.249Z,97500.34
2023-02-16T07:36:49.758Z,97507.22
2023-02-16T07:39:16.205Z,97511.25
2023-02-16T07:41:42.760Z,97517.81
2023-02-16T07:44:09.239Z,97514.09
2023-02-16T07:46:35.774Z,97511.69
2023-02-16T07:49:02.309Z,97513.25
2023-02-16T07:51:29.327Z,97501.50
2023-02-16T07:53:55.749Z,97500.63
2023-02-16T07:56:23.476Z,97506.63
2023-02-16T07:58:51.608Z,97496.03
2023-02-16T08:01:18.194Z,97502.03
2023-02-16T08:03:44.624Z,97502.75
2023-02-16T08:06:11.075Z,97512.44
2023-02-16T08:08:37.558Z,97510.59
2023-02-16T08:11:10.192Z,97507.63
2023-02-16T08:13:36.675Z,97512.34
2023-02-16T08:16:03.507Z,97517.47
2023-02-16T08:18:30.621Z,97508.50
2023-02-16T08:21:04.195Z,97508.16
2023-02-16T08:23:31.730Z,97513.16
2023-02-16T08:25:59.232Z,97513.25
2023-02-16T08:28:28.920Z,97514.56
2023-02-16T08:30:55.740Z,97512.56
2023-02-16T08:33:22.236Z,97504.69
2023-02-16T08:35:48.936Z,97508.16
2023-02-16T08:38:17.415Z,97512.44
2023-02-16T08:40:47.702Z,97511.44
2023-02-16T08:43:14.125Z,97511.56
2023-02-16T08:45:44.525Z,97502.78
2023-02-16T08:48:11.792Z,97510.91
2023-02-16T08:50:38.402Z,97507.56
2023-02-16T08:53:04.875Z,97504.66
2023-02-16T08:55:31.295Z,97513.16
2023-02-16T08:57:58.728Z,97507.78
2023-02-16T09:00:34.212Z,97504.22
2023-02-16T09:03:00.866Z,97494.69
2023-02-16T09:05:28.296Z,97507.34
2023-02-16T09:07:54.791Z,97505.31
2023-02-16T09:10:24.782Z,97504.34
2023-02-16T09:12:51.247Z,97509.28
2023-02-16T09:15:17.856Z,97509.31
2023-02-16T09:17:44.321Z,97508.31
2023-02-16T09:20:11.227Z,97511.78
2023-02-16T09:22:38.058Z,97505.72
2023-02-16T09:25:05.028Z,97500.94
2023-02-16T09:27:31.608Z,97503.50
2023-02-16T09:29:58.705Z,97511.81
2023-02-16T09:32:37.405Z,97505.47
2023-02-16T09:35:05.133Z,97512.16
2023-02-16T09:37:32.097Z,97515.16
2023-02-16T09:39:58.666Z,97513.19
2023-02-16T09:42:28.494Z,97512.22
2023-02-16T09:45:09.769Z,97513.63
2023-02-16T09:47:40.217Z,97517.50
2023-02-16T09:50:13.294Z,97513.38
2023-02-16T09:52:43.317Z,97519.97
2023-02-16T09:55:16.877Z,97510.09
2023-02-16T09:57:58.595Z,97512.16
2023-02-16T10:00:28.173Z,97500.03
2023-02-16T10:03:05.554Z,97504.88
2023-02-16T10:05:52.827Z,97514.31
2023-02-16T10:08:25.116Z,97500.31
2023-02-16T10:11:06.178Z,97497.38
2023-02-16T10:13:49.608Z,97499.41
2023-02-16T10:16:17.282Z,97498.09
2023-02-16T10:18:45.088Z,97495.59
2023-02-16T10:21:15.361Z,97498.19
2023-02-16T10:23:46.255Z,97486.97
2023-02-16T10:26:17.996Z,97487.06
2023-02-16T10:28:50.548Z,97486.53
2023-02-16T10:31:31.956Z,97481.38
2023-02-16T10:34:01.793Z,97486.84
2023-02-16T10:36:41.428Z,97478.69
2023-02-16T10:39:26.745Z,97481.78
2023-02-16T10:42:11.619Z,97482.50
2023-02-16T10:44:40.545Z,97477.16
2023-02-16T10:47:09.302Z,97481.38
2023-02-16T10:49:35.932Z,97470.00
2023-02-16T10:52:02.436Z,97470.94
2023-02-16T10:54:47.252Z,97462.53
2023-02-16T10:57:20.392Z,97457.19
2023-02-16T10:59:47.486Z,97461.81
2023-02-16T11:02:23.041Z,97463.47
2023-02-16T11:04:52.545Z,97459.25
2023-02-16T11:07:20.129Z,97461.09
2023-02-16T11:09:47.456Z,97452.03
2023-02-16T11:12:34.217Z,97449.03
2023-02-16T11:15:08.475Z,97443.25
2023-02-16T11:17:47.725Z,97444.66
2023-02-16T11:20:25.214Z,97439.31
2023-02-16T11:22:51.854Z,97438.06
2023-02-16T11:25:18.280Z,97425.78
2023-02-16T11:27:52.002Z,97425.84
2023-02-16T11:30:22.676Z,97424.19
2023-02-16T11:32:50.394Z,97423.75
2023-02-16T11:35:17.734Z,97422.94
2023-02-16T11:37:44.168Z,97421.06
2023-02-16T11:40:18.501Z,97413.25
2023-02-16T11:42:47.051Z,97418.06
2023-02-16T11:45:25.868Z,97404.47
2023-02-16T11:47:53.455Z,97412.19
2023-02-16T11:50:21.053Z,97405.06
2023-02-16T11:52:49.635Z,97403.00
2023-02-16T11:55:43.361Z,97405.78
2023-02-16T11:58:17.760Z,97405.97
2023-02-16T12:00:47.529Z,97399.31
2023-02-16T12:03:25.112Z,97403.53
2023-02-16T12:06:03.806Z,97397.84
2023-02-16T12:08:33.562Z,97387.28
2023-02-16T12:11:09.080Z,97382.81
2023-02-16T12:13:42.785Z,97392.94
2023-02-16T12:16:17.289Z,97387.53
2023-02-16T12:18:47.078Z,97387.09
2023-02-16T12:21:32.365Z,97379.81
2023-02-16T12:24:07.920Z,97382.00
2023-02-16T12:26:34.618Z,97378.41
2023-02-16T12:29:13.255Z,97375.00
2023-02-16T12:31:47.614Z,97371.38
2023-02-16T12:34:17.173Z,97376.31
2023-02-16T12:36:46.060Z,97371.03
2023-02-16T12:39:21.831Z,97369.28
2023-02-16T12:41:48.266Z,97368.00
2023-02-16T12:44:34.984Z,97375.50
2023-02-16T12:47:24.554Z,97366.47
2023-02-16T12:49:55.502Z,97359.66
2023-02-16T12:52:31.230Z,97348.66
2023-02-16T12:55:10.990Z,97345.44
2023-02-16T12:57:37.854Z,97343.94
2023-02-16T13:00:04.362Z,97342.28
2023-02-16T13:02:34.262Z,97343.22
2023-02-16T13:05:19.472Z,97348.41
2023-02-16T13:08:26.667Z,97334.78
2023-02-16T13:10:55.533Z,97327.47
2023-02-16T13:13:24.465Z,97326.16
2023-02-16T13:15:52.984Z,97325.59
2023-02-16T13:18:19.790Z,97315.28
2023-02-16T13:20:47.841Z,97323.00
2023-02-16T13:23:17.315Z,97316.09
2023-02-16T13:25:50.997Z,97317.72
2023-02-16T13:28:31.683Z,97315.28
2023-02-16T13:30:58.318Z,97315.28
2023-02-16T13:33:37.081Z,97317.63
2023-02-16T13:36:07.904Z,97313.41
2023-02-16T13:38:43.690Z,97321.25
2023-02-16T13:41:29.126Z,97320.19
2023-02-16T13:43:56.096Z,97321.84
2023-02-16T13:46:37.721Z,97312.94
2023-02-16T13:49:04.124Z,97319.91
2023-02-16T13:51:40.302Z,97319.28
2023-02-16T13:54:06.731Z,97311.34
2023-02-16T13:56:36.106Z,97317.22
2023-02-16T13:59:18.576Z,97317.09
2023-02-16T14:01:48.914Z,97316.19
2023-02-16T14:04:27.649Z,97313.81
2023-02-16T14:07:10.499Z,97317.22
2023-02-16T14:09:37.034Z,97306.28
2023-02-16T14:12:11.637Z,97313.19
2023-02-16T14:14:38.081Z,97314.97
2023-02-16T14:17:16.743Z,97310.84
2023-02-16T14:19:50.011Z,97312.81
2023-02-16T14:22:17.736Z,97313.31
2023-02-16T14:24:44.807Z,97315.31
2023-02-16T14:27:11.627Z,97315.41
2023-02-16T14:29:38.864Z,97305.34
2023-02-16T14:32:14.496Z,97314.81
2023-02-16T14:34:42.334Z,97311.53
2023-02-16T14:37:09.598Z,97313.28
2023-02-16T14:39:58.464Z,97315.03
2023-02-16T14:42:31.272Z,97316.09
2023-02-16T14:45:17.676Z,97310.13
2023-02-16T14:47:48.360Z,97315.72
2023-02-16T14:50:47.328Z,97305.00
2023-02-16T14:53:33.568Z,97310.53
2023-02-16T14:56:16.808Z,97306.19
2023-02-16T14:58:52.344Z,97314.34
2023-02-16T15:01:18.931Z,97309.84
2023-02-16T15:03:46.442Z,97298.03
2023-02-16T15:06:33.533Z,97306.69
2023-02-16T15:09:00.910Z,97297.53
2023-02-16T15:11:29.172Z,97297.63
2023-02-16T15:13:55.769Z,97302.88
2023-02-16T15:16:22.382Z,97289.41
2023-02-16T15:18:49.672Z,97295.22
2023-02-16T15:21:18.931Z,97293.88
2023-02-16T15:23:49.170Z,97302.84
2023-02-16T15:26:20.552Z,97300.09
2023-02-16T15:29:05.429Z,97298.97
2023-02-16T15:31:35.267Z,97293.53
2023-02-16T15:34:05.605Z,97298.59
2023-02-16T15:36:35.961Z,97295.72
2023-02-16T15:39:03.948Z,97292.97
2023-02-16T15:41:35.102Z,97287.50
2023-02-16T15:44:29.864Z,97299.97
2023-02-16T15:47:13.798Z,97287.81
2023-02-16T15:49:40.401Z,97299.88
2023-02-16T15:52:09.880Z,97292.56
2023-02-16T15:54:36.532Z,97302.44
2023-02-16T15:57:16.180Z,97302.00
2023-02-16T15:59:49.449Z,97298.28
2023-02-16T16:02:16.166Z,97299.72
2023-02-16T16:04:43.958Z,97298.47
2023-02-16T16:07:14.438Z,97297.41
2023-02-16T16:09:40.925Z,97300.25
2023-02-16T16:12:08.591Z,97292.38
2023-02-16T16:14:35.532Z,97295.00
2023-02-16T16:17:01.974Z,97301.63
2023-02-16T16:19:31.906Z,97292.84
2023-02-16T16:21:58.852Z,97299.38
2023-02-16T16:24:32.669Z,97292.34
2023-02-16T16:26:59.510Z,97292.28
2023-02-16T16:29:34.041Z,97301.34
2023-02-16T16:32:00.641Z,97296.03
2023-02-16T16:34:34.189Z,97297.22
2023-02-16T16:37:02.710Z,97294.19
2023-02-16T16:39:29.986Z,97287.69
2023-02-16T16:41:56.393Z,97289.88
2023-02-16T16:44:28.979Z,97294.38
2023-02-16T16:46:55.520Z,97282.66
2023-02-16T16:49:21.946Z,97289.78
2023-02-16T16:51:51.404Z,97291.69
2023-02-16T16:54:35.584Z,97287.38
2023-02-16T16:57:13.280Z,97298.72
2023-02-16T16:59:39.769Z,97296.16
2023-02-16T17:02:06.307Z,97289.84
2023-02-16T17:04:32.992Z,97296.06
2023-02-16T17:06:59.533Z,97296.59
2023-02-16T17:09:25.968Z,97299.41
2023-02-16T17:11:52.383Z,97284.50
2023-02-16T17:14:18.998Z,97295.81
2023-02-16T17:16:46.098Z,97295.16
2023-02-16T17:19:13.529Z,97288.81
2023-02-16T17:21:40.049Z,97296.75
2023-02-16T17:24:07.420Z,97298.09
2023-02-16T17:26:34.022Z,97300.00
2023-02-16T17:29:00.605Z,97302.72
2023-02-16T17:31:27.127Z,97306.13
2023-02-16T17:33:53.617Z,97308.75
2023-02-16T17:36:20.074Z,97306.47
2023-02-16T17:38:47.042Z,97310.91
2023-02-16T17:41:16.840Z,97298.47
2023-02-16T17:43:43.349Z,97303.91
2023-02-16T17:46:09.862Z,97305.88
2023-02-16T17:48:36.342Z,97316.28
2023-02-16T17:51:02.818Z,97307.88
2023-02-16T17:53:29.329Z,97311.47
2023-02-16T17:55:56.305Z,97307.38
2023-02-16T17:58:23.030Z,97314.03
2023-02-16T18:00:49.560Z,97307.47
2023-02-16T18:03:16.240Z,97312.91
2023-02-16T18:05:42.901Z,97315.69
2023-02-16T18:08:10.040Z,97315.94
2023-02-16T18:10:39.546Z,97316.13
2023-02-16T18:13:06.205Z,97317.41
2023-02-16T18:15:32.709Z,97320.38
2023-02-16T18:17:59.352Z,97319.03
2023-02-16T18:20:26.706Z,97314.81
2023-02-16T18:22:55.617Z,97322.75
2023-02-16T18:25:22.248Z,97309.19
2023-02-16T18:27:48.742Z,97307.53
2023-02-16T18:30:15.726Z,97311.84
2023-02-16T18:32:42.299Z,97315.31
2023-02-16T18:35:09.366Z,97309.13
2023-02-16T18:37:35.777Z,97311.94
2023-02-16T18:40:02.497Z,97309.00
2023-02-16T18:42:29.037Z,97305.03
2023-02-16T18:44:55.810Z,97306.84
2023-02-16T18:47:22.299Z,97313.69
2023-02-16T18:49:50.546Z,97306.75
2023-02-16T18:52:17.038Z,97311.97
2023-02-16T18:54:43.520Z,97309.41
2023-02-16T18:57:10.210Z,97315.25
2023-02-16T18:59:36.645Z,97322.00
2023-02-16T19:02:03.237Z,97315.34
2023-02-16T19:04:29.943Z,97316.84
2023-02-16T19:06:58.490Z,97316.97
2023-02-16T19:09:25.035Z,97317.44
2023-02-16T19:11:51.491Z,97327.13
2023-02-16T19:14:18.645Z,97325.66
2023-02-16T19:16:45.585Z,97326.63
2023-02-16T19:19:12.122Z,97326.69
2023-02-16T19:21:40.167Z,97326.69
2023-02-16T19:24:07.239Z,97330.16
2023-02-16T19:26:33.677Z,97330.06
2023-02-16T19:29:00.171Z,97337.06
2023-02-16T19:31:28.388Z,97327.22
2023-02-16T19:33:55.201Z,97330.81
2023-02-16T19:36:21.783Z,97334.28
2023-02-16T19:38:49.116Z,97330.16
2023-02-16T19:41:16.624Z,97339.69
2023-02-16T19:43:43.241Z,97338.19
2023-02-16T19:46:09.914Z,97335.78
2023-02-16T19:48:36.535Z,97337.59
2023-02-16T19:51:03.504Z,97321.59
2023-02-16T19:56:27.888Z,97320.75
2023-02-16T19:58:54.651Z,97339.25
2023-02-16T20:01:22.013Z,97339.53
2023-02-16T20:03:48.843Z,97335.75
2023-02-16T20:06:15.996Z,97343.72
2023-02-16T20:08:42.638Z,97330.25
2023-02-16T20:11:09.215Z,97330.41
2023-02-16T20:13:36.103Z,97329.59
2023-02-16T20:16:03.346Z,97335.31
2023-02-16T20:18:30.004Z,97329.47
2023-02-16T20:21:06.982Z,97337.56
2023-02-16T20:23:33.555Z,97329.81
2023-02-16T20:26:00.119Z,97326.84
2023-02-16T20:28:26.718Z,97333.13
2023-02-16T20:30:53.279Z,97324.81
2023-02-16T20:33:19.868Z,97327.56
2023-02-16T20:35:46.761Z,97320.00
2023-02-16T20:38:13.342Z,97324.13
2023-02-16T20:40:39.946Z,97329.63
2023-02-16T20:43:06.420Z,97323.97
2023-02-16T20:45:32.943Z,97327.56
2023-02-16T20:47:59.388Z,97329.34
2023-02-16T20:50:25.996Z,97324.41
2023-02-16T20:52:52.466Z,97328.75
2023-02-16T20:55:18.888Z,97330.63
2023-02-16T20:58:02.933Z,97328.75
2023-02-16T21:00:29.888Z,97340.00
2023-02-16T21:02:56.351Z,97336.00
2023-02-16T21:05:23.036Z,97332.81
2023-02-16T21:07:50.120Z,97326.06
2023-02-16T21:10:16.677Z,97321.88
2023-02-16T21:12:43.202Z,97317.69
2023-02-16T21:15:10.452Z,97320.28
2023-02-16T21:17:37.211Z,97317.72
2023-02-16T21:20:04.561Z,97318.50
2023-02-16T21:22:31.487Z,97321.06
2023-02-16T21:24:57.923Z,97317.69
2023-02-16T21:27:24.408Z,97323.66
2023-02-16T21:29:51.035Z,97313.41
2023-02-16T21:32:17.582Z,97310.78
2023-02-16T21:34:44.541Z,97304.84
2023-02-16T21:37:11.231Z,97306.50
2023-02-16T21:39:56.466Z,97311.59
2023-02-16T21:42:22.902Z,97304.94
2023-02-16T21:45:09.338Z,97305.75
2023-02-16T21:47:54.465Z,97300.50
2023-02-16T21:50:20.902Z,97308.16
2023-02-16T21:52:47.336Z,97293.66
2023-02-16T21:55:32.464Z,97291.28
2023-02-16T21:57:58.839Z,97298.97
2023-02-16T22:00:25.286Z,97307.53
2023-02-16T22:02:51.765Z,97300.06
2023-02-16T22:05:18.186Z,97302.78
2023-02-16T22:07:44.724Z,97304.50
2023-02-16T22:10:11.196Z,97294.31
2023-02-16T22:12:37.691Z,97296.84
2023-02-16T22:15:04.414Z,97303.69
2023-02-16T22:17:31.780Z,97299.53
2023-02-16T22:19:58.204Z,97305.69
2023-02-16T22:22:24.718Z,97307.41
2023-02-16T22:24:51.203Z,97311.66
2023-02-16T22:27:17.668Z,97314.19
2023-02-16T22:29:44.114Z,97315.06
2023-02-16T22:32:14.747Z,97317.66
2023-02-16T22:34:41.459Z,97310.91
2023-02-16T22:37:07.894Z,97311.81
2023-02-16T22:39:34.394Z,97320.34
2023-02-16T22:42:01.126Z,97312.81
2023-02-16T22:44:27.754Z,97304.34
2023-02-16T22:46:54.669Z,97300.97
2023-02-16T22:49:21.074Z,97304.25
2023-02-16T22:51:47.524Z,97302.44
2023-02-16T22:54:14.475Z,97295.63
2023-02-16T22:56:40.972Z,97292.16
2023-02-16T22:59:07.557Z,97311.72
2023-02-16T23:01:34.291Z,97305.81
2023-02-16T23:04:00.870Z,97306.00
2023-02-16T23:06:31.280Z,97303.59
2023-02-16T23:08:58.704Z,97300.44
2023-02-16T23:11:25.284Z,97297.13
2023-02-16T23:13:51.703Z,97287.88
2023-02-16T23:16:19.084Z,97292.16
2023-02-16T23:18:45.627Z,97297.19
2023-02-16T23:21:16.443Z,97288.59
2023-02-16T23:23:42.945Z,97301.66
2023-02-16T23:26:09.370Z,97291.69
2023-02-16T23:28:36.007Z,97288.50
2023-02-16T23:31:02.518Z,97283.59
2023-02-16T23:33:29.011Z,97276.97
2023-02-16T23:35:55.889Z,97284.63
2023-02-16T23:38:22.540Z,97281.22
2023-02-16T23:40:58.736Z,97280.50
2023-02-16T23:43:25.303Z,97282.34
2023-02-16T23:45:51.802Z,97276.34
2023-02-16T23:48:18.501Z,97280.56
2023-02-16T23:50:45.029Z,97287.31
2023-02-16T23:53:11.459Z,97278.78
2023-02-16T23:55:38.045Z,97276.44
2023-02-16T23:58:04.555Z,97278.16
